createdAt,value
2023-02-09T14:52:15.283Z,10.68
2023-02-09T14:52:24.194Z,10.79
2023-02-09T14:52:34.386Z,10.96
2023-02-09T14:52:47.212Z,11.04
2023-02-09T14:52:54.369Z,11.13
2023-02-09T14:53:04.430Z,11.23
2023-02-09T14:53:14.378Z,11.30
2023-02-09T14:53:24.386Z,11.37
2023-02-09T14:53:34.417Z,11.45
2023-02-09T14:53:44.464Z,11.52
2023-02-09T14:53:54.379Z,11.59
2023-02-09T14:54:04.401Z,11.66
2023-02-09T14:54:14.387Z,11.75
2023-02-09T14:54:24.377Z,11.76
2023-02-09T14:54:34.389Z,11.83
2023-02-09T14:54:44.412Z,11.89
2023-02-09T14:54:54.389Z,11.92
2023-02-09T14:55:04.380Z,11.94
2023-02-09T14:55:14.376Z,11.98
2023-02-09T14:55:24.383Z,11.98
2023-02-09T14:55:34.390Z,12.03
2023-02-09T14:55:44.893Z,12.07
2023-02-09T14:55:54.397Z,12.07
2023-02-09T14:56:04.395Z,12.08
2023-02-09T14:56:14.358Z,12.08
2023-02-09T14:56:24.375Z,12.13
2023-02-09T14:56:34.376Z,12.14
2023-02-09T14:56:44.393Z,12.14
2023-02-09T14:56:54.393Z,12.19
2023-02-09T14:57:04.350Z,12.16
2023-02-09T14:57:14.387Z,12.01
2023-02-09T14:57:24.359Z,12.06
2023-02-09T14:57:34.381Z,12.08
2023-02-09T14:57:44.404Z,12.04
2023-02-09T14:57:54.424Z,12.07
2023-02-09T14:58:04.386Z,11.92
2023-02-09T14:58:14.351Z,11.97
2023-02-09T14:58:24.380Z,11.89
2023-02-09T14:58:34.361Z,11.83
2023-02-09T14:58:44.372Z,11.86
2023-02-09T14:58:54.444Z,11.94
2023-02-09T14:59:04.368Z,11.97
2023-02-09T14:59:14.373Z,11.97
2023-02-09T14:59:24.373Z,11.97
2023-02-09T14:59:34.352Z,12.00
2023-02-09T14:59:44.387Z,12.01
2023-02-09T14:59:54.377Z,11.98
2023-02-09T15:00:04.438Z,11.97
2023-02-09T15:00:14.356Z,11.94
2023-02-09T15:00:24.371Z,11.96
2023-02-09T15:00:34.376Z,11.97
2023-02-09T15:00:44.354Z,11.90
2023-02-09T15:00:54.365Z,11.79
2023-02-09T15:01:04.416Z,11.80
2023-02-09T15:01:14.403Z,11.82
2023-02-09T15:01:24.409Z,11.82
2023-02-09T15:01:34.437Z,11.83
2023-02-09T15:01:44.407Z,11.83
2023-02-09T15:01:54.365Z,11.83
2023-02-09T15:02:04.368Z,11.77
2023-02-09T15:02:14.358Z,11.72
2023-02-09T15:02:24.394Z,11.52
2023-02-09T15:02:34.371Z,11.57
2023-02-09T15:02:44.376Z,11.61
2023-02-09T15:02:54.398Z,11.59
2023-02-09T15:03:04.390Z,11.59
2023-02-09T15:03:14.432Z,11.59
2023-02-09T15:03:24.340Z,11.58
2023-02-09T15:03:34.342Z,11.57
2023-02-09T15:03:44.373Z,11.58
2023-02-09T15:03:54.345Z,11.51
2023-02-09T15:04:04.465Z,11.51
2023-02-09T15:04:14.380Z,11.52
2023-02-09T15:04:24.363Z,11.51
2023-02-09T15:04:34.338Z,11.52
2023-02-09T15:04:44.339Z,11.51
2023-02-09T15:04:54.350Z,11.51
2023-02-09T15:05:04.348Z,11.51
2023-02-09T15:05:14.351Z,11.49
2023-02-09T15:05:24.340Z,11.46
2023-02-09T15:05:34.338Z,11.48
2023-02-09T15:05:44.710Z,11.45
2023-02-09T15:05:54.318Z,11.46
2023-02-09T15:06:04.355Z,11.45
2023-02-09T15:06:14.338Z,11.45
2023-02-09T15:06:24.325Z,11.41
2023-02-09T15:06:34.323Z,11.39
2023-02-09T15:06:44.349Z,11.39
2023-02-09T15:06:54.392Z,11.39
2023-02-09T15:07:04.339Z,11.39
2023-02-09T15:07:14.323Z,11.35
2023-02-09T15:07:24.443Z,11.35
2023-02-09T15:07:34.320Z,11.35
2023-02-09T15:07:44.337Z,11.34
2023-02-09T15:07:54.326Z,11.34
2023-02-09T15:08:05.679Z,11.31
2023-02-09T15:08:14.338Z,11.30
2023-02-09T15:08:24.324Z,11.27
2023-02-09T15:08:34.321Z,11.25
2023-02-09T15:08:44.315Z,11.25
2023-02-09T15:08:54.329Z,11.21
2023-02-09T15:09:04.323Z,11.11
2023-02-09T15:09:14.413Z,11.15
2023-02-09T15:09:24.332Z,11.15
2023-02-09T15:09:34.320Z,11.17
2023-02-09T15:09:44.342Z,11.13
2023-02-09T15:09:54.349Z,11.13
2023-02-09T15:10:04.369Z,11.11
2023-02-09T15:10:14.332Z,11.08
2023-02-09T15:10:24.325Z,11.10
2023-02-09T15:10:34.314Z,11.06
2023-02-09T15:10:44.323Z,11.07
2023-02-09T15:10:54.323Z,11.06
2023-02-09T15:11:04.356Z,11.06
2023-02-09T15:11:14.328Z,11.06
2023-02-09T15:11:24.332Z,11.02
2023-02-09T15:11:34.323Z,11.02
2023-02-09T15:11:44.302Z,11.00
2023-02-09T15:11:54.300Z,10.99
2023-02-09T15:12:04.324Z,10.99
2023-02-09T15:12:14.299Z,10.96
2023-02-09T15:12:24.300Z,10.96
2023-02-09T15:12:34.295Z,10.92
2023-02-09T15:12:44.292Z,10.92
2023-02-09T15:12:54.297Z,10.89
2023-02-09T15:13:04.290Z,10.89
2023-02-09T15:13:14.319Z,10.83
2023-02-09T15:13:24.300Z,10.82
2023-02-09T15:13:34.294Z,10.78
2023-02-09T15:13:44.299Z,10.76
2023-02-09T15:13:54.300Z,10.78
2023-02-09T15:14:04.361Z,10.76
2023-02-09T15:14:14.335Z,10.76
2023-02-09T15:14:24.413Z,10.76
2023-02-09T15:14:34.359Z,10.73
2023-02-09T15:14:44.363Z,10.75
2023-02-09T15:14:54.361Z,10.70
2023-02-09T15:15:04.494Z,10.69
2023-02-09T15:15:14.384Z,10.69
2023-02-09T15:15:24.371Z,10.68
2023-02-09T15:15:34.418Z,10.65
2023-02-09T15:15:44.675Z,10.63
2023-02-09T15:15:54.453Z,10.65
2023-02-09T15:16:04.476Z,10.63
2023-02-09T15:16:14.437Z,10.59
2023-02-09T15:16:24.627Z,10.52
2023-02-09T15:16:34.427Z,10.52
2023-02-09T15:16:44.436Z,10.51
2023-02-09T15:16:54.448Z,10.52
2023-02-09T15:17:04.416Z,10.48
2023-02-09T15:17:14.424Z,10.49
2023-02-09T15:17:24.406Z,10.48
2023-02-09T15:17:34.454Z,10.45
2023-02-09T15:17:44.407Z,10.45
2023-02-09T15:17:54.411Z,10.44
2023-02-09T15:18:04.405Z,10.41
2023-02-09T15:18:14.404Z,10.40
2023-02-09T15:18:24.403Z,10.37
2023-02-09T15:18:34.442Z,10.35
2023-02-09T15:18:44.454Z,10.34
2023-02-09T15:18:54.456Z,10.32
2023-02-09T15:19:04.521Z,10.31
2023-02-09T15:19:14.455Z,10.28
2023-02-09T15:19:24.622Z,10.30
2023-02-09T15:19:34.489Z,10.27
2023-02-09T15:19:44.481Z,10.28
2023-02-09T15:19:54.485Z,10.24
2023-02-09T15:20:04.587Z,10.24
2023-02-09T15:20:14.513Z,10.21
2023-02-09T15:20:24.610Z,10.21
2023-02-09T15:20:34.550Z,10.21
2023-02-09T15:20:44.554Z,10.14
2023-02-09T15:20:54.545Z,10.15
2023-02-09T15:21:04.557Z,10.14
2023-02-09T15:21:14.599Z,10.14
2023-02-09T15:21:24.576Z,10.10
2023-02-09T15:21:34.596Z,10.14
2023-02-09T15:21:44.728Z,10.10
2023-02-09T15:22:06.511Z,10.08
2023-02-09T15:22:08.002Z,10.07
2023-02-09T15:22:14.602Z,10.04
2023-02-09T15:22:24.586Z,10.06
2023-02-09T15:22:34.591Z,10.03
2023-02-09T15:22:44.589Z,10.01
2023-02-09T15:22:54.603Z,10.01
2023-02-09T15:23:04.640Z,10.01
2023-02-09T15:23:14.693Z,9.98
2023-02-09T15:23:24.588Z,9.98
2023-02-09T15:23:34.626Z,9.96
2023-02-09T15:23:44.586Z,9.94
2023-02-09T15:23:54.676Z,9.94
2023-02-09T15:24:04.585Z,9.93
2023-02-09T15:24:14.576Z,9.89
2023-02-09T15:24:24.673Z,9.89
2023-02-09T15:24:34.580Z,9.87
2023-02-09T15:24:44.627Z,9.87
2023-02-09T15:24:54.859Z,9.86
2023-02-09T15:25:04.598Z,9.82
2023-02-09T15:25:14.574Z,9.80
2023-02-09T15:25:24.569Z,9.76
2023-02-09T15:25:34.585Z,9.76
2023-02-09T15:25:44.953Z,9.76
2023-02-09T15:25:54.556Z,9.73
2023-02-09T15:26:04.563Z,9.73
2023-02-09T15:26:14.571Z,9.75
2023-02-09T15:26:24.697Z,9.72
2023-02-09T15:26:34.581Z,9.73
2023-02-09T15:26:44.565Z,9.70
2023-02-09T15:26:54.674Z,9.72
2023-02-09T15:27:04.564Z,9.68
2023-02-09T15:27:14.635Z,9.68
2023-02-09T15:27:24.562Z,9.61
2023-02-09T15:27:34.573Z,9.56
2023-02-09T15:27:44.705Z,9.58
2023-02-09T15:27:54.597Z,9.58
2023-02-09T15:28:04.593Z,9.58
2023-02-09T15:28:14.609Z,9.58
2023-02-09T15:28:24.737Z,9.58
2023-02-09T15:28:34.704Z,9.53
2023-02-09T15:28:44.555Z,9.53
2023-02-09T15:28:54.556Z,9.51
2023-02-09T15:29:04.554Z,9.51
2023-02-09T15:29:14.675Z,9.51
2023-02-09T15:29:24.561Z,9.48
2023-02-09T15:29:34.619Z,9.45
2023-02-09T15:29:44.683Z,9.45
2023-02-09T15:29:54.566Z,9.44
2023-02-09T15:30:05.073Z,9.44
2023-02-09T15:30:14.559Z,9.39
2023-02-09T15:30:24.579Z,9.38
2023-02-09T15:30:34.566Z,9.38
2023-02-09T15:30:44.988Z,9.37
2023-02-09T15:30:54.603Z,9.35
2023-02-09T15:31:04.628Z,9.34
2023-02-09T15:31:16.283Z,9.34
2023-02-09T15:31:24.637Z,9.31
2023-02-09T15:31:34.604Z,9.31
2023-02-09T15:31:44.608Z,9.31
2023-02-09T15:31:54.542Z,9.27
2023-02-09T15:32:04.698Z,9.30
2023-02-09T15:32:14.538Z,9.27
2023-02-09T15:32:24.553Z,9.25
2023-02-09T15:32:34.543Z,9.24
2023-02-09T15:32:44.528Z,9.23
2023-02-09T15:32:54.547Z,9.21
2023-02-09T15:33:04.543Z,9.18
2023-02-09T15:33:14.604Z,9.20
2023-02-09T15:33:24.536Z,9.21
2023-02-09T15:33:34.567Z,9.17
2023-02-09T15:33:44.635Z,9.15
2023-02-09T15:33:54.672Z,9.15
2023-02-09T15:34:04.548Z,9.13
2023-02-09T15:34:15.548Z,9.08
2023-02-09T15:34:24.542Z,9.11
2023-02-09T15:34:34.746Z,9.10
2023-02-09T15:34:44.537Z,9.07
2023-02-09T15:34:54.544Z,9.06
2023-02-09T15:35:04.543Z,9.03
2023-02-09T15:35:14.568Z,9.04
2023-02-09T15:35:24.544Z,9.04
2023-02-09T15:35:34.552Z,9.00
2023-02-09T15:35:44.832Z,8.99
2023-02-09T15:35:54.538Z,8.99
2023-02-09T15:36:04.560Z,8.96
2023-02-09T15:36:14.575Z,8.96
2023-02-09T15:36:24.623Z,8.93
2023-02-09T15:36:34.551Z,8.94
2023-02-09T15:36:44.555Z,8.93
2023-02-09T15:36:54.536Z,8.91
2023-02-09T15:37:04.598Z,8.89
2023-02-09T15:37:14.558Z,8.89
2023-02-09T15:37:24.538Z,8.87
2023-02-09T15:37:34.516Z,8.84
2023-02-09T15:37:44.518Z,8.84
2023-02-09T15:37:54.604Z,8.82
2023-02-09T15:38:04.554Z,8.82
2023-02-09T15:38:14.532Z,8.82
2023-02-09T15:38:24.520Z,8.79
2023-02-09T15:38:34.649Z,8.79
2023-02-09T15:38:44.527Z,8.76
2023-02-09T15:38:54.535Z,8.76
2023-02-09T15:39:04.541Z,8.75
2023-02-09T15:39:15.235Z,8.72
2023-02-09T15:39:24.534Z,8.70
2023-02-09T15:39:34.652Z,8.70
2023-02-09T15:39:44.670Z,8.66
2023-02-09T15:39:54.646Z,8.59
2023-02-09T15:40:04.618Z,8.62
2023-02-09T15:40:14.518Z,8.61
2023-02-09T15:40:24.638Z,8.58
2023-02-09T15:40:34.519Z,8.51
2023-02-09T15:40:44.934Z,8.52
2023-02-09T15:40:54.624Z,8.48
2023-02-09T15:41:04.677Z,8.48
2023-02-09T15:41:14.509Z,8.44
2023-02-09T15:41:24.630Z,8.47
2023-02-09T15:41:36.225Z,8.40
2023-02-09T15:41:44.523Z,8.35
2023-02-09T15:41:54.511Z,8.30
2023-02-09T15:42:04.516Z,8.24
2023-02-09T15:42:14.526Z,8.23
2023-02-09T15:42:24.608Z,8.20
2023-02-09T15:42:34.495Z,8.21
2023-02-09T15:42:44.512Z,8.11
2023-02-09T15:42:54.491Z,8.07
2023-02-09T15:43:04.490Z,8.06
2023-02-09T15:43:14.489Z,7.97
2023-02-09T15:43:24.632Z,7.94
2023-02-09T15:43:34.489Z,7.89
2023-02-09T15:43:44.501Z,7.88
2023-02-09T15:43:54.490Z,7.89
2023-02-09T15:44:04.531Z,7.90
2023-02-09T15:44:14.488Z,7.92
2023-02-09T15:44:24.500Z,7.89
2023-02-09T15:44:34.557Z,7.86
2023-02-09T15:44:44.499Z,7.85
2023-02-09T15:44:54.668Z,7.82
2023-02-09T15:45:04.502Z,7.83
2023-02-09T15:45:14.551Z,7.83
2023-02-09T15:45:24.558Z,7.75
2023-02-09T15:45:34.511Z,7.76
2023-02-09T15:45:44.507Z,7.76
2023-02-09T15:45:54.513Z,7.73
2023-02-09T15:46:04.635Z,7.72
2023-02-09T15:46:14.532Z,7.72
2023-02-09T15:46:24.551Z,7.72
2023-02-09T15:46:34.596Z,7.70
2023-02-09T15:46:44.530Z,7.73
2023-02-09T15:46:54.580Z,7.72
2023-02-09T15:47:04.927Z,7.70
2023-02-09T15:48:16.133Z,6.99
2023-02-09T15:48:26.067Z,6.99
2023-02-09T15:48:36.289Z,7.04
2023-02-09T15:48:46.367Z,7.06
2023-02-09T15:48:56.296Z,7.11
2023-02-09T15:49:06.316Z,7.13
2023-02-09T15:49:16.268Z,7.16
2023-02-09T15:49:26.273Z,7.14
2023-02-09T15:49:36.268Z,7.17
2023-02-09T15:49:46.246Z,7.16
2023-02-09T15:49:56.269Z,7.20
2023-02-09T15:50:06.294Z,7.20
2023-02-09T15:50:16.311Z,7.23
2023-02-09T15:50:28.443Z,7.23
2023-02-09T15:50:36.290Z,7.16
2023-02-09T15:50:46.574Z,7.10
2023-02-09T15:50:56.511Z,7.11
2023-02-09T15:51:06.498Z,7.11
2023-02-09T15:51:16.354Z,7.16
2023-02-09T15:51:26.464Z,7.17
2023-02-09T15:51:36.534Z,7.20
2023-02-09T15:51:46.472Z,7.23
2023-02-09T15:51:56.382Z,7.24
2023-02-09T15:52:06.380Z,7.25
2023-02-09T15:52:16.356Z,7.24
2023-02-09T15:52:26.734Z,7.28
2023-02-09T15:52:36.508Z,7.27
2023-02-09T15:52:46.383Z,7.30
2023-02-09T15:52:56.458Z,7.27
2023-02-09T15:53:06.371Z,7.30
2023-02-09T15:53:16.402Z,7.30
2023-02-09T15:53:26.455Z,7.28
2023-02-09T15:53:36.372Z,7.28
2023-02-09T15:53:46.341Z,7.28
2023-02-09T15:53:56.470Z,7.28
2023-02-09T15:54:06.467Z,7.28
2023-02-09T15:54:16.359Z,7.28
2023-02-09T15:54:26.381Z,7.27
2023-02-09T15:54:36.382Z,7.28
2023-02-09T15:54:46.357Z,7.28
2023-02-09T15:54:56.392Z,7.25
2023-02-09T15:55:06.411Z,7.25
2023-02-09T15:55:16.475Z,7.24
2023-02-09T15:55:26.409Z,7.06
2023-02-09T15:55:36.388Z,7.08
2023-02-09T15:55:46.404Z,7.14
2023-02-09T15:55:58.578Z,7.18
2023-02-09T15:56:06.429Z,7.07
2023-02-09T15:56:16.413Z,7.00
2023-02-09T15:56:26.450Z,6.92
2023-02-09T15:56:36.466Z,6.88
2023-02-09T15:56:46.449Z,6.95
2023-02-09T15:56:56.467Z,6.92
2023-02-09T15:57:06.459Z,6.92
2023-02-09T15:57:16.457Z,6.95
2023-02-09T15:57:26.473Z,6.96
2023-02-09T15:57:36.458Z,6.92
2023-02-09T15:57:46.621Z,6.93
2023-02-09T15:57:56.569Z,6.92
2023-02-09T15:58:06.600Z,6.86
2023-02-09T15:58:16.484Z,6.86
2023-02-09T15:58:26.458Z,6.69
2023-02-09T15:58:36.583Z,6.76
2023-02-09T15:58:46.498Z,6.79
2023-02-09T15:58:56.621Z,6.83
2023-02-09T15:59:06.472Z,6.82
2023-02-09T15:59:16.546Z,6.80
2023-02-09T15:59:26.558Z,6.80
2023-02-09T15:59:36.471Z,6.82
2023-02-09T15:59:46.495Z,6.79
2023-02-09T15:59:56.605Z,6.79
2023-02-09T16:00:06.492Z,6.78
2023-02-09T16:00:16.482Z,6.79
2023-02-09T16:00:26.576Z,6.75
2023-02-09T16:00:36.501Z,6.75
2023-02-09T16:00:46.766Z,6.58
2023-02-09T16:00:56.647Z,6.61
2023-02-09T16:01:06.652Z,6.56
2023-02-09T16:01:16.704Z,6.58
2023-02-09T16:01:26.701Z,6.56
2023-02-09T16:01:36.689Z,6.52
2023-02-09T16:01:46.668Z,6.42
2023-02-09T16:01:58.994Z,6.47
2023-02-09T16:02:06.813Z,6.49
2023-02-09T16:02:16.733Z,6.48
2023-02-09T16:02:26.797Z,6.49
2023-02-09T16:02:36.806Z,6.42
2023-02-09T16:02:46.782Z,6.33
2023-02-09T16:02:56.929Z,6.33
2023-02-09T16:03:06.768Z,6.40
2023-02-09T16:03:16.759Z,6.35
2023-02-09T16:03:26.718Z,6.31
2023-02-09T16:03:36.744Z,6.18
2023-02-09T16:03:46.740Z,6.09
2023-02-09T16:04:05.356Z,6.12
2023-02-09T16:04:14.899Z,6.20
2023-02-09T16:04:17.864Z,6.16
2023-02-09T16:04:26.741Z,6.20
2023-02-09T16:04:36.881Z,6.17
2023-02-09T16:04:46.741Z,6.14
2023-02-09T16:04:56.748Z,6.20
2023-02-09T16:05:06.736Z,6.20
2023-02-09T16:05:16.743Z,6.16
2023-02-09T16:05:26.862Z,6.05
2023-02-09T16:05:36.759Z,6.05
2023-02-09T16:05:46.731Z,6.03
2023-02-09T16:05:56.735Z,5.97
2023-02-09T16:06:06.723Z,5.99
2023-02-09T16:06:16.730Z,5.92
2023-02-09T16:06:26.715Z,5.90
2023-02-09T16:06:36.733Z,5.93
2023-02-09T16:06:46.861Z,5.93
2023-02-09T16:06:56.791Z,5.86
2023-02-09T16:07:06.715Z,5.82
2023-02-09T16:07:16.721Z,5.82
2023-02-09T16:07:26.714Z,5.82
2023-02-09T16:07:36.712Z,5.85
2023-02-09T16:07:46.723Z,5.80
2023-02-09T16:07:56.718Z,5.57
2023-02-09T16:08:06.714Z,5.59
2023-02-09T16:08:16.811Z,5.63
2023-02-09T16:08:26.762Z,5.66
2023-02-09T16:08:36.765Z,5.69
2023-02-09T16:08:46.733Z,5.71
2023-02-09T16:08:56.822Z,5.71
2023-02-09T16:09:06.727Z,5.73
2023-02-09T16:09:16.730Z,5.71
2023-02-09T16:09:26.773Z,5.72
2023-02-09T16:09:36.739Z,5.73
2023-02-09T16:09:46.715Z,5.72
2023-02-09T16:09:56.748Z,5.72
2023-02-09T16:10:06.902Z,5.71
2023-02-09T16:10:16.730Z,5.72
2023-02-09T16:10:26.713Z,5.71
2023-02-09T16:10:36.982Z,5.73
2023-02-09T16:10:46.945Z,5.69
2023-02-09T16:10:56.861Z,5.71
2023-02-09T16:11:06.731Z,5.71
2023-02-09T16:11:16.880Z,5.71
2023-02-09T16:11:26.725Z,5.69
2023-02-09T16:11:36.706Z,5.66
2023-02-09T16:11:46.744Z,5.69
2023-02-09T16:11:56.737Z,5.68
2023-02-09T16:12:06.707Z,5.66
2023-02-09T16:12:16.889Z,5.65
2023-02-09T16:12:26.736Z,5.65
2023-02-09T16:12:36.738Z,5.50
2023-02-09T16:12:46.715Z,5.52
2023-02-09T16:12:56.781Z,5.54
2023-02-09T16:13:06.815Z,5.54
2023-02-09T16:13:16.738Z,5.48
2023-02-09T16:13:26.746Z,5.43
2023-02-09T16:13:36.754Z,5.30
2023-02-09T16:13:46.783Z,5.34
2023-02-09T16:13:56.775Z,5.37
2023-02-09T16:14:06.913Z,5.31
2023-02-09T16:14:16.780Z,5.26
2023-02-09T16:14:26.806Z,5.19
2023-02-09T16:14:36.786Z,5.22
2023-02-09T16:14:46.826Z,5.22
2023-02-09T16:14:56.811Z,5.24
2023-02-09T16:15:06.808Z,5.17
2023-02-09T16:15:16.845Z,5.20
2023-02-09T16:15:26.956Z,5.20
2023-02-09T16:15:37.040Z,5.17
2023-02-09T16:15:46.888Z,5.12
2023-02-09T16:16:05.051Z,5.06
2023-02-09T16:16:16.803Z,5.00
2023-02-09T16:16:18.043Z,5.06
2023-02-09T16:16:27.018Z,5.07
2023-02-09T16:16:36.896Z,5.09
2023-02-09T16:16:46.954Z,5.07
2023-02-09T16:16:57.059Z,5.05
2023-02-09T16:17:06.987Z,4.96
2023-02-09T16:17:16.862Z,4.99
2023-02-09T16:17:27.026Z,5.02
2023-02-09T16:17:36.858Z,4.97
2023-02-09T16:17:46.844Z,4.93
2023-02-09T16:17:56.856Z,4.97
2023-02-09T16:18:06.868Z,4.99
2023-02-09T16:18:16.990Z,4.92
2023-02-09T16:18:26.859Z,4.92
2023-02-09T16:18:36.878Z,4.93
2023-02-09T16:18:46.882Z,4.90
2023-02-09T16:18:56.850Z,4.85
2023-02-09T16:19:06.850Z,4.88
2023-02-09T16:19:17.051Z,4.89
2023-02-09T16:19:26.967Z,4.92
2023-02-09T16:19:36.992Z,4.95
2023-02-09T16:19:46.832Z,4.95
2023-02-09T16:19:56.838Z,4.90
2023-02-09T16:20:06.861Z,4.90
2023-02-09T16:20:16.845Z,4.95
2023-02-09T16:20:26.837Z,4.93
2023-02-09T16:20:36.993Z,4.89
2023-02-09T16:20:47.255Z,4.89
2023-02-09T16:20:56.843Z,4.90
2023-02-09T16:21:06.840Z,4.92
2023-02-09T16:21:16.818Z,4.90
2023-02-09T16:21:26.875Z,4.90
2023-02-09T16:21:36.956Z,4.92
2023-02-09T16:21:46.999Z,4.92
2023-02-09T16:21:56.837Z,4.90
2023-02-09T16:22:07.028Z,4.90
2023-02-09T16:22:16.831Z,4.90
2023-02-09T16:22:26.843Z,4.86
2023-02-09T16:22:36.836Z,4.82
2023-02-09T16:22:46.998Z,4.83
2023-02-09T16:22:56.988Z,4.82
2023-02-09T16:23:19.616Z,4.83
2023-02-09T16:23:20.908Z,4.82
2023-02-09T16:23:26.847Z,4.82
2023-02-09T16:23:37.026Z,4.80
2023-02-09T16:23:47.038Z,4.83
2023-02-09T16:23:57.070Z,4.83
2023-02-09T16:24:07.180Z,4.83
2023-02-09T16:24:17.034Z,4.83
2023-02-09T16:24:27.034Z,4.82
2023-02-09T16:24:37.053Z,4.82
2023-02-09T16:24:47.053Z,4.82
2023-02-09T16:24:57.035Z,4.80
2023-02-09T16:25:07.130Z,4.78
2023-02-09T16:25:17.022Z,4.79
2023-02-09T16:25:27.066Z,4.78
2023-02-09T16:25:37.044Z,4.80
2023-02-09T16:25:47.136Z,4.78
2023-02-09T16:25:57.024Z,4.76
2023-02-09T16:26:07.195Z,4.76
2023-02-09T16:26:17.136Z,4.75
2023-02-09T16:26:27.053Z,4.72
2023-02-09T16:26:37.185Z,4.71
2023-02-09T16:26:47.202Z,4.73
2023-02-09T16:26:57.057Z,4.69
2023-02-09T16:27:07.082Z,4.71
2023-02-09T16:27:17.083Z,4.69
2023-02-09T16:27:27.080Z,4.69
2023-02-09T16:27:37.258Z,4.68
2023-02-09T16:27:47.086Z,4.67
2023-02-09T16:27:57.314Z,4.65
2023-02-09T16:28:07.345Z,4.65
2023-02-09T16:28:17.152Z,4.65
2023-02-09T16:28:27.213Z,4.65
2023-02-09T16:28:37.163Z,4.64
2023-02-09T16:28:47.183Z,4.61
2023-02-09T16:28:57.173Z,4.61
2023-02-09T16:29:07.303Z,4.58
2023-02-09T16:29:17.323Z,4.61
2023-02-09T16:29:27.182Z,4.60
2023-02-09T16:29:37.420Z,4.58
2023-02-09T16:29:47.374Z,4.57
2023-02-09T16:29:57.229Z,4.57
2023-02-09T16:30:07.386Z,4.55
2023-02-09T16:30:17.256Z,4.57
2023-02-09T16:30:27.397Z,4.52
2023-02-09T16:30:37.248Z,4.50
2023-02-09T16:30:47.666Z,4.48
2023-02-09T16:30:57.271Z,4.48
2023-02-09T16:31:10.164Z,4.48
2023-02-09T16:31:17.292Z,4.44
2023-02-09T16:31:27.278Z,4.44
2023-02-09T16:31:37.319Z,4.45
2023-02-09T16:31:47.329Z,4.43
2023-02-09T16:31:57.421Z,4.41
2023-02-09T16:32:07.270Z,4.43
2023-02-09T16:32:17.253Z,4.41
2023-02-09T16:32:27.425Z,4.43
2023-02-09T16:32:37.407Z,4.40
2023-02-09T16:32:47.275Z,4.41
2023-02-09T16:32:57.262Z,4.39
2023-02-09T16:33:07.261Z,4.36
2023-02-09T16:33:17.258Z,4.36
2023-02-09T16:33:27.264Z,4.36
2023-02-09T16:33:37.338Z,4.34
2023-02-09T16:33:47.264Z,4.37
2023-02-09T16:33:57.263Z,4.36
2023-02-09T16:34:07.437Z,4.34
2023-02-09T16:34:17.387Z,4.30
2023-02-09T16:34:27.251Z,4.14
2023-02-09T16:34:37.259Z,4.02
2023-02-09T16:34:47.299Z,4.03
2023-02-09T16:35:07.377Z,4.02
2023-02-09T16:35:16.650Z,4.05
2023-02-09T16:35:18.264Z,3.99
2023-02-09T16:35:27.246Z,4.05
2023-02-09T16:35:37.257Z,4.03
2023-02-09T16:35:47.527Z,4.02
2023-02-09T16:35:57.370Z,4.03
2023-02-09T16:36:07.384Z,4.03
2023-02-09T16:36:17.381Z,4.02
2023-02-09T16:36:27.402Z,4.00
2023-02-09T16:36:37.239Z,4.02
2023-02-09T16:36:48.672Z,3.98
2023-02-09T16:36:57.397Z,4.00
2023-02-09T16:37:07.413Z,3.98
2023-02-09T16:37:17.242Z,3.99
2023-02-09T16:37:27.276Z,3.96
2023-02-09T16:37:37.348Z,3.95
2023-02-09T16:37:47.250Z,3.95
2023-02-09T16:37:57.253Z,3.96
2023-02-09T16:38:07.281Z,3.95
2023-02-09T16:38:17.249Z,3.95
2023-02-09T16:38:27.243Z,3.92
2023-02-09T16:38:37.414Z,3.92
2023-02-09T16:38:47.408Z,3.88
2023-02-09T16:38:57.417Z,3.90
2023-02-09T16:39:07.418Z,3.88
2023-02-09T16:39:17.259Z,3.88
2023-02-09T16:39:27.300Z,3.88
2023-02-09T16:39:37.265Z,3.90
2023-02-09T16:39:47.235Z,3.83
2023-02-09T16:39:57.253Z,3.75
2023-02-09T16:40:07.487Z,3.79
2023-02-09T16:40:17.269Z,3.75
2023-02-09T16:40:27.254Z,3.69
2023-02-09T16:40:37.284Z,3.71
2023-02-09T16:40:47.239Z,3.69
2023-02-09T16:40:57.221Z,3.72
2023-02-09T16:41:07.531Z,3.75
2023-02-09T16:41:17.447Z,3.77
2023-02-09T16:41:27.298Z,3.75
2023-02-09T16:41:37.457Z,3.78
2023-02-09T16:41:47.405Z,3.78
2023-02-09T16:41:57.288Z,3.77
2023-02-09T16:42:07.279Z,3.77
2023-02-09T16:42:17.308Z,3.78
2023-02-09T16:42:27.416Z,3.78
2023-02-09T16:42:37.289Z,3.75
2023-02-09T16:42:48.593Z,3.77
2023-02-09T16:42:57.306Z,3.75
2023-02-09T16:43:07.460Z,3.75
2023-02-09T16:43:17.357Z,3.78
2023-02-09T16:43:27.277Z,3.75
2023-02-09T16:43:37.288Z,3.75
2023-02-09T16:43:47.336Z,3.77
2023-02-09T16:43:57.280Z,3.72
2023-02-09T16:44:07.444Z,3.72
2023-02-09T16:44:17.466Z,3.74
2023-02-09T16:44:27.372Z,3.71
2023-02-09T16:44:37.307Z,3.74
2023-02-09T16:44:47.322Z,3.72
2023-02-09T16:44:57.327Z,3.72
2023-02-09T16:45:07.500Z,3.69
2023-02-09T16:45:17.358Z,3.69
2023-02-09T16:45:27.484Z,3.68
2023-02-09T16:45:37.455Z,3.69
2023-02-09T16:46:01.042Z,3.68
2023-02-09T16:46:03.595Z,3.71
2023-02-09T16:46:08.763Z,3.72
2023-02-09T16:46:17.530Z,3.69
2023-02-09T16:46:27.375Z,3.72
2023-02-09T16:46:37.573Z,3.67
2023-02-09T16:46:47.437Z,3.65
2023-02-09T16:46:57.421Z,3.64
2023-02-09T16:47:07.539Z,3.65
2023-02-09T16:47:17.359Z,3.65
2023-02-09T16:47:27.481Z,3.64
2023-02-09T16:47:37.372Z,3.62
2023-02-09T16:47:47.363Z,3.62
2023-02-09T16:47:59.246Z,3.64
2023-02-09T16:48:07.535Z,3.62
2023-02-09T16:48:17.381Z,3.64
2023-02-09T16:48:27.523Z,3.64
2023-02-09T16:48:37.567Z,3.61
2023-02-09T16:48:47.386Z,3.62
2023-02-09T16:48:57.376Z,3.62
2023-02-09T16:49:07.544Z,3.62
2023-02-09T16:49:17.528Z,3.61
2023-02-09T16:49:27.359Z,3.62
2023-02-09T16:49:37.547Z,3.60
2023-02-09T16:49:47.377Z,3.58
2023-02-09T16:49:57.366Z,3.58
2023-02-09T16:50:07.341Z,3.60
2023-02-09T16:50:17.342Z,3.57
2023-02-09T16:50:27.367Z,3.57
2023-02-09T16:50:37.517Z,3.57
2023-02-09T16:50:47.699Z,3.58
2023-02-09T16:50:57.356Z,3.55
2023-02-09T16:51:07.382Z,3.55
2023-02-09T16:51:17.701Z,3.53
2023-02-09T16:51:27.360Z,3.54
2023-02-09T16:51:37.537Z,3.53
2023-02-09T16:51:47.509Z,3.51
2023-02-09T16:51:57.392Z,3.51
2023-02-09T16:52:07.350Z,3.50
2023-02-09T16:52:17.359Z,3.49
2023-02-09T16:52:27.360Z,3.51
2023-02-09T16:52:37.491Z,3.49
2023-02-09T16:52:47.437Z,3.49
2023-02-09T16:52:57.336Z,3.51
2023-02-09T16:53:07.374Z,3.49
2023-02-09T16:53:17.335Z,3.50
2023-02-09T16:53:27.520Z,3.49
2023-02-09T16:53:37.503Z,3.47
2023-02-09T16:53:47.450Z,3.47
2023-02-09T16:53:57.522Z,3.49
2023-02-09T16:54:07.487Z,3.47
2023-02-09T16:54:17.514Z,3.47
2023-02-09T16:54:27.352Z,3.44
2023-02-09T16:54:37.369Z,3.45
2023-02-09T16:54:47.519Z,3.41
2023-02-09T16:54:57.375Z,3.44
2023-02-09T16:55:07.345Z,3.43
2023-02-09T16:55:17.562Z,3.43
2023-02-09T16:55:27.354Z,3.40
2023-02-09T16:55:37.494Z,3.41
2023-02-09T16:55:49.594Z,3.41
2023-02-09T16:55:57.378Z,3.43
2023-02-09T16:56:07.504Z,3.38
2023-02-09T16:56:17.750Z,3.40
2023-02-09T16:56:27.844Z,3.38
2023-02-09T16:56:52.572Z,3.35
2023-02-09T16:56:54.054Z,3.35
2023-02-09T16:56:58.593Z,3.35
2023-02-09T16:57:07.592Z,3.37
2023-02-09T16:57:17.659Z,3.33
2023-02-09T16:57:27.771Z,3.35
2023-02-09T16:57:37.769Z,3.37
2023-02-09T16:57:47.732Z,3.33
2023-02-09T16:57:57.804Z,3.33
2023-02-09T16:58:07.737Z,3.31
2023-02-09T16:58:17.575Z,3.30
2023-02-09T16:58:27.731Z,3.31
2023-02-09T16:58:37.593Z,3.31
2023-02-09T16:58:47.578Z,3.33
2023-02-09T16:58:57.578Z,3.30
2023-02-09T16:59:07.616Z,3.28
2023-02-09T16:59:17.581Z,3.28
2023-02-09T16:59:27.760Z,3.28
2023-02-09T16:59:37.789Z,3.26
2023-02-09T16:59:47.579Z,3.27
2023-02-09T16:59:57.590Z,3.26
2023-02-09T17:00:07.568Z,3.24
2023-02-09T17:00:17.587Z,3.24
2023-02-09T17:00:27.720Z,3.23
2023-02-09T17:00:38.723Z,3.22
2023-02-09T17:00:47.811Z,3.20
2023-02-09T17:00:57.757Z,3.19
2023-02-09T17:01:07.795Z,3.16
2023-02-09T17:01:17.644Z,3.15
2023-02-09T17:01:27.605Z,3.15
2023-02-09T17:01:37.896Z,3.15
2023-02-09T17:01:48.554Z,3.12
2023-02-09T17:01:57.622Z,3.07
2023-02-09T17:02:07.577Z,3.03
2023-02-09T17:02:17.579Z,2.94
2023-02-09T17:02:27.723Z,2.91
2023-02-09T17:02:37.747Z,2.96
2023-02-09T17:02:47.608Z,2.95
2023-02-09T17:02:57.628Z,2.96
2023-02-09T17:03:07.600Z,2.99
2023-02-09T17:03:17.726Z,2.98
2023-02-09T17:03:27.571Z,2.96
2023-02-09T17:03:37.723Z,2.96
2023-02-09T17:03:47.698Z,2.98
2023-02-09T17:03:57.739Z,2.96
2023-02-09T17:04:08.755Z,2.95
2023-02-09T17:04:17.650Z,2.95
2023-02-09T17:04:27.737Z,2.92
2023-02-09T17:04:37.722Z,2.89
2023-02-09T17:04:48.728Z,2.89
2023-02-09T17:04:57.589Z,2.89
2023-02-09T17:05:07.573Z,2.88
2023-02-09T17:05:17.562Z,2.91